HHR weather

Jack Northrop Field Hawthorne Municipal Airport
Hawthorne, California, United States

Public forecast

Using degrees Fahrenheit for public forecast. Weather courtesy of forecast.io.

METAR (pilot weather report)

Retrieved 2019/07/22 09:53 UTC (58 minutes ago):

KHHR 220953Z AUTO 00000KT 10SM SCT009 18/15 A2994 RMK AO2 SLP138 T01830150 $

TAF (pilot weather forecast)

Closest forecast is Los Angeles International Airport, 3.8 nm (7.1 km) WNW. Retrieved 2019/07/22 06:42 UTC (4 hours ago):

TAF KLAX 220539Z 2206/2312 25005KT P6SM BKN008 FM221600 25006KT P6SM SCT012 FM222100 26012KT P6SM SKC FM230400 25008KT P6SM SCT010 FM230700 25005KT P6SM OVC008